createdAt,value
2019-05-03T00:00:27.953Z,8.03
2019-05-03T00:01:27.929Z,8.06
2019-05-03T00:02:27.968Z,8.03
2019-05-03T00:03:27.911Z,8.06
2019-05-03T00:04:28.024Z,8.13
2019-05-03T00:05:27.883Z,7.98
2019-05-03T00:06:27.892Z,7.85
2019-05-03T00:07:27.861Z,8.03
2019-05-03T00:08:27.908Z,8.01
2019-05-03T00:09:27.861Z,7.98
2019-05-03T00:10:27.924Z,7.98
2019-05-03T00:11:27.815Z,7.98
2019-05-03T00:12:27.831Z,7.99
2019-05-03T00:13:27.793Z,7.99
2019-05-03T00:14:27.847Z,7.98
2019-05-03T00:15:27.787Z,7.95
2019-05-03T00:16:27.861Z,7.83
2019-05-03T00:17:27.749Z,7.83
2019-05-03T00:18:27.769Z,7.90
2019-05-03T00:19:27.738Z,7.88
2019-05-03T00:20:27.818Z,7.98
2019-05-03T00:21:27.712Z,7.99
2019-05-03T00:22:27.799Z,7.99
2019-05-03T00:23:27.691Z,7.95
2019-05-03T00:24:27.709Z,7.85
2019-05-03T00:25:27.674Z,7.88
2019-05-03T00:26:27.722Z,7.88
2019-05-03T00:27:27.640Z,7.80
2019-05-03T00:28:27.736Z,7.90
2019-05-03T00:29:27.632Z,7.81
2019-05-03T00:30:27.677Z,7.87
2019-05-03T00:31:27.598Z,7.77
2019-05-03T00:32:27.662Z,7.85
2019-05-03T00:33:27.574Z,7.84
2019-05-03T00:34:28.613Z,7.84
2019-05-03T00:35:27.563Z,7.85
2019-05-03T00:36:27.586Z,7.80
2019-05-03T00:37:27.530Z,7.72
2019-05-03T00:38:27.600Z,7.72
2019-05-03T00:39:27.507Z,7.74
2019-05-03T00:40:27.539Z,7.78
2019-05-03T00:41:27.487Z,7.78
2019-05-03T00:42:27.525Z,7.83
2019-05-03T00:43:27.470Z,7.81
2019-05-03T00:44:27.538Z,7.87
2019-05-03T00:45:27.456Z,7.88
2019-05-03T00:46:27.451Z,7.85
2019-05-03T00:47:27.419Z,7.84
2019-05-03T00:48:27.466Z,7.80
2019-05-03T00:49:27.401Z,7.78
2019-05-03T00:50:27.509Z,7.90
2019-05-03T00:51:27.380Z,7.91
2019-05-03T00:52:27.393Z,7.81
2019-05-03T00:53:27.353Z,7.67
2019-05-03T00:54:27.403Z,7.70
2019-05-03T00:55:27.345Z,7.78
2019-05-03T00:56:27.419Z,7.66
2019-05-03T00:57:27.310Z,7.75
2019-05-03T00:58:27.330Z,7.70
2019-05-03T00:59:27.288Z,7.67
2019-05-03T01:00:27.392Z,7.67
2019-05-03T01:01:27.284Z,7.66
2019-05-03T01:02:27.367Z,7.66
2019-05-03T01:03:27.245Z,7.62
2019-05-03T01:04:27.269Z,7.58
2019-05-03T01:05:27.237Z,7.55
2019-05-03T01:06:27.279Z,7.51
2019-05-03T01:07:27.201Z,7.48
2019-05-03T01:08:27.295Z,7.44
2019-05-03T01:09:27.183Z,7.53
2019-05-03T01:10:27.234Z,7.43
2019-05-03T01:11:27.163Z,7.37
2019-05-03T01:12:27.222Z,7.29
2019-05-03T01:13:27.135Z,7.29
2019-05-03T01:14:27.233Z,7.25
2019-05-03T01:15:27.124Z,7.31
2019-05-03T01:16:34.107Z,7.23
2019-05-03T01:17:27.090Z,7.18
2019-05-03T01:18:33.610Z,7.15
2019-05-03T01:19:27.079Z,7.18
2019-05-03T01:20:27.098Z,7.10
2019-05-03T01:21:27.050Z,7.14
2019-05-03T01:22:27.082Z,7.11
2019-05-03T01:23:27.028Z,7.15
2019-05-03T01:24:27.096Z,7.10
2019-05-03T01:25:32.186Z,7.05
2019-05-03T01:26:28.035Z,7.13
2019-05-03T01:27:26.981Z,7.07
2019-05-03T01:28:27.022Z,7.11
2019-05-03T01:29:26.962Z,7.08
2019-05-03T01:30:27.068Z,7.10
2019-05-03T01:31:26.940Z,7.11
2019-05-03T01:32:26.947Z,7.05
2019-05-03T01:33:26.914Z,7.05
2019-05-03T01:34:26.959Z,7.00
2019-05-03T01:35:26.924Z,7.05
2019-05-03T01:36:26.974Z,7.04
2019-05-03T01:37:26.872Z,7.03
2019-05-03T01:38:26.886Z,6.96
2019-05-03T01:39:26.853Z,7.04
2019-05-03T01:40:26.899Z,7.01
2019-05-03T01:41:26.841Z,6.93
2019-05-03T01:42:26.913Z,6.93
2019-05-03T01:43:26.808Z,6.78
2019-05-03T01:44:26.823Z,6.83
2019-05-03T01:45:26.785Z,6.71
2019-05-03T01:46:26.867Z,6.68
2019-05-03T01:47:26.765Z,6.59
2019-05-03T01:48:26.853Z,6.67
2019-05-03T01:49:26.739Z,6.64
2019-05-03T01:50:26.762Z,6.67
2019-05-03T01:51:26.734Z,6.57
2019-05-03T01:52:26.778Z,6.71
2019-05-03T01:53:26.696Z,6.70
2019-05-03T01:54:26.790Z,6.67
2019-05-03T01:55:26.675Z,6.68
2019-05-03T01:56:26.742Z,6.62
2019-05-03T01:57:26.654Z,6.68
2019-05-03T01:58:27.739Z,6.62
2019-05-03T01:59:26.629Z,6.64
2019-05-03T02:00:33.693Z,6.46
2019-05-03T02:01:26.619Z,6.39
2019-05-03T02:02:33.706Z,6.32
2019-05-03T02:03:26.590Z,6.29
2019-05-03T02:04:28.601Z,6.17
2019-05-03T02:05:26.568Z,6.02
2019-05-03T02:06:26.598Z,5.97
2019-05-03T02:07:26.546Z,5.91
2019-05-03T02:08:26.587Z,5.84
2019-05-03T02:09:26.523Z,5.79
2019-05-03T02:10:26.593Z,5.80
2019-05-03T02:11:26.516Z,5.84
2019-05-03T02:12:26.504Z,5.70
2019-05-03T02:13:26.483Z,5.67
2019-05-03T02:14:26.520Z,5.65
2019-05-03T02:15:26.459Z,5.70
2019-05-03T02:16:26.575Z,5.61
2019-05-03T02:17:26.437Z,5.70
2019-05-03T02:18:26.443Z,5.64
2019-05-03T02:19:26.416Z,5.56
2019-05-03T02:20:26.458Z,5.55
2019-05-03T02:21:26.406Z,5.55
2019-05-03T02:22:26.474Z,5.49
2019-05-03T02:23:26.373Z,5.52
2019-05-03T02:24:26.381Z,5.44
2019-05-03T02:25:26.349Z,5.49
2019-05-03T02:26:26.428Z,5.38
2019-05-03T02:27:26.334Z,5.44
2019-05-03T02:28:26.409Z,5.43
2019-05-03T02:29:26.308Z,5.34
2019-05-03T02:30:26.323Z,5.33
2019-05-03T02:31:26.305Z,5.25
2019-05-03T02:32:26.336Z,5.31
2019-05-03T02:33:26.276Z,5.23
2019-05-03T02:34:26.351Z,5.23
2019-05-03T02:35:26.244Z,5.19
2019-05-03T02:36:26.291Z,5.19
2019-05-03T02:37:26.221Z,5.13
2019-05-03T02:38:26.273Z,5.10
2019-05-03T02:39:26.217Z,5.00
2019-05-03T02:40:26.292Z,5.00
2019-05-03T02:41:26.212Z,4.90
2019-05-03T02:42:26.655Z,4.94
2019-05-03T02:43:26.474Z,4.89
2019-05-03T02:44:26.800Z,4.89
2019-05-03T02:45:26.142Z,4.92
2019-05-03T02:46:26.159Z,5.07
2019-05-03T02:47:26.673Z,4.98
2019-05-03T02:48:36.482Z,5.00
2019-05-03T02:49:26.158Z,5.05
2019-05-03T02:50:28.104Z,5.08
2019-05-03T02:51:26.395Z,5.10
2019-05-03T02:52:27.093Z,5.12
2019-05-03T02:53:26.342Z,5.13
2019-05-03T02:54:26.812Z,5.10
2019-05-03T02:55:26.486Z,5.19
2019-05-03T02:56:26.429Z,5.26
2019-05-03T02:57:26.064Z,5.26
2019-05-03T02:58:26.104Z,5.33
2019-05-03T02:59:26.544Z,5.36
2019-05-03T03:00:26.016Z,5.34
2019-05-03T03:01:26.466Z,5.34
2019-05-03T03:02:26.451Z,5.36
2019-05-03T03:03:25.940Z,5.37
2019-05-03T03:04:26.287Z,5.43
2019-05-03T03:05:25.919Z,5.44
2019-05-03T03:06:26.693Z,5.49
2019-05-03T03:07:26.084Z,5.47
2019-05-03T03:08:25.978Z,5.47
2019-05-03T03:09:26.226Z,5.52
2019-05-03T03:10:26.527Z,5.65
2019-05-03T03:11:26.226Z,5.69
2019-05-03T03:12:25.917Z,5.59
2019-05-03T03:13:25.837Z,5.62
2019-05-03T03:14:25.959Z,5.56
2019-05-03T03:15:25.812Z,5.49
2019-05-03T03:16:25.854Z,5.55
2019-05-03T03:17:25.796Z,5.43
2019-05-03T03:18:25.834Z,5.40
2019-05-03T03:19:26.261Z,5.49
2019-05-03T03:20:25.847Z,5.38
2019-05-03T03:21:26.139Z,5.38
2019-05-03T03:22:26.086Z,5.29
2019-05-03T03:23:26.448Z,5.31
2019-05-03T03:24:26.005Z,5.36
2019-05-03T03:25:26.021Z,5.28
2019-05-03T03:26:37.599Z,5.28
2019-05-03T03:27:26.696Z,5.18
2019-05-03T03:28:25.698Z,5.28
2019-05-03T03:29:25.722Z,5.25
2019-05-03T03:30:29.211Z,5.25
2019-05-03T03:31:28.252Z,5.08
2019-05-03T03:32:29.987Z,5.08
2019-05-03T03:33:28.071Z,5.04
2019-05-03T03:34:37.967Z,5.05
2019-05-03T03:35:29.769Z,4.94
2019-05-03T03:36:50.403Z,4.94
2019-05-03T03:37:26.614Z,4.84
2019-05-03T03:38:26.144Z,4.83
2019-05-03T03:39:26.183Z,4.75
2019-05-03T03:40:25.651Z,4.75
2019-05-03T03:41:25.581Z,4.71
2019-05-03T03:42:25.544Z,4.70
2019-05-03T03:43:26.042Z,4.58
2019-05-03T03:44:25.850Z,4.58
2019-05-03T03:45:25.573Z,4.60
2019-05-03T03:46:25.483Z,4.58
2019-05-03T03:47:27.407Z,4.50
2019-05-03T03:48:26.640Z,4.52
2019-05-03T03:49:26.235Z,4.49
2019-05-03T03:50:26.072Z,4.48
2019-05-03T03:51:26.297Z,4.57
2019-05-03T03:52:25.653Z,4.53
2019-05-03T03:53:26.470Z,4.46
2019-05-03T03:54:26.100Z,4.46
2019-05-03T03:55:26.347Z,4.46
2019-05-03T03:56:25.653Z,4.49
2019-05-03T03:57:25.419Z,4.48
2019-05-03T03:58:27.139Z,4.48
2019-05-03T03:59:26.769Z,4.48
2019-05-03T04:00:25.903Z,4.48
2019-05-03T04:01:26.702Z,4.43
2019-05-03T04:02:26.523Z,4.52
2019-05-03T04:03:26.193Z,4.49
2019-05-03T04:04:25.968Z,4.45
2019-05-03T04:05:25.714Z,4.53
2019-05-03T04:06:26.953Z,4.60
2019-05-03T04:07:26.224Z,4.50
2019-05-03T04:08:25.349Z,4.53
2019-05-03T04:09:25.711Z,4.58
2019-05-03T04:10:26.094Z,4.66
2019-05-03T04:11:25.874Z,4.66
2019-05-03T04:12:26.392Z,4.68
2019-05-03T04:13:25.690Z,4.68
2019-05-03T04:14:25.481Z,4.66
2019-05-03T04:15:26.089Z,4.66
2019-05-03T04:16:25.853Z,4.71
2019-05-03T04:17:26.068Z,4.74
2019-05-03T04:18:25.693Z,4.75
2019-05-03T04:19:25.275Z,4.75
2019-05-03T04:20:25.867Z,4.82
2019-05-03T04:22:25.568Z,4.71
2019-05-03T04:23:27.118Z,4.71
2019-05-03T04:24:25.932Z,4.75
2019-05-03T04:25:26.522Z,4.68
2019-05-03T04:26:29.442Z,4.67
2019-05-03T04:27:27.626Z,4.74
2019-05-03T04:28:25.688Z,4.68
2019-05-03T04:29:25.470Z,4.76
2019-05-03T04:30:25.655Z,4.76
2019-05-03T04:31:26.122Z,4.84
2019-05-03T04:32:28.746Z,4.79
2019-05-03T04:33:26.934Z,4.90
2019-05-03T04:34:26.382Z,4.89
2019-05-03T04:35:26.534Z,4.95
2019-05-03T04:36:26.250Z,4.92
2019-05-03T04:37:26.628Z,4.98
2019-05-03T04:38:25.714Z,4.97
2019-05-03T04:39:25.705Z,5.04
2019-05-03T04:40:26.106Z,5.15
2019-05-03T04:41:26.884Z,5.15
2019-05-03T04:42:25.506Z,5.18
2019-05-03T04:43:26.558Z,5.29
2019-05-03T04:44:26.064Z,5.26
2019-05-03T04:45:25.533Z,5.28
2019-05-03T04:46:25.920Z,5.33
2019-05-03T04:47:26.328Z,5.38
2019-05-03T04:48:25.338Z,5.51
2019-05-03T04:49:26.211Z,5.52
2019-05-03T04:50:25.448Z,5.69
2019-05-03T04:51:25.861Z,5.94
2019-05-03T04:52:25.947Z,6.17
2019-05-03T04:53:26.022Z,6.39
2019-05-03T04:54:25.421Z,6.50
2019-05-03T04:55:26.564Z,6.70
2019-05-03T04:56:25.923Z,6.92
2019-05-03T04:57:36.741Z,7.13
2019-05-03T04:58:25.932Z,7.29
2019-05-03T04:59:25.412Z,7.41
2019-05-03T05:00:25.656Z,7.55
2019-05-03T05:01:26.137Z,7.56
2019-05-03T05:02:26.362Z,7.80
2019-05-03T05:03:26.556Z,7.93
2019-05-03T05:04:25.387Z,8.09
2019-05-03T05:05:26.393Z,8.20
2019-05-03T05:06:25.769Z,8.18
2019-05-03T05:07:26.427Z,8.32
2019-05-03T05:08:25.270Z,8.42
2019-05-03T05:09:39.197Z,8.45
2019-05-03T05:10:26.031Z,8.60
2019-05-03T05:11:26.381Z,8.84
2019-05-03T05:12:25.362Z,8.92
2019-05-03T05:13:25.113Z,8.89
2019-05-03T05:14:25.947Z,8.81
2019-05-03T05:15:26.529Z,8.74
2019-05-03T05:16:25.159Z,8.84
2019-05-03T05:17:26.367Z,9.02
2019-05-03T05:18:26.340Z,9.03
2019-05-03T05:19:25.426Z,9.31
2019-05-03T05:20:24.831Z,9.42
2019-05-03T05:21:25.247Z,9.34
2019-05-03T05:22:24.728Z,9.42
2019-05-03T05:23:25.131Z,9.66
2019-05-03T05:24:25.606Z,9.66
2019-05-03T05:25:25.136Z,9.88
2019-05-03T05:26:24.842Z,10.02
2019-05-03T05:27:25.625Z,9.99
2019-05-03T05:28:25.019Z,10.09
2019-05-03T05:29:25.356Z,10.06
2019-05-03T05:30:25.194Z,10.07
2019-05-03T05:31:25.456Z,10.17
2019-05-03T05:32:24.805Z,10.00
2019-05-03T05:33:25.208Z,10.21
2019-05-03T05:34:24.612Z,10.06
2019-05-03T05:35:24.864Z,10.07
2019-05-03T05:36:24.427Z,10.10
2019-05-03T05:37:25.043Z,10.31
2019-05-03T05:38:25.568Z,10.59
2019-05-03T05:39:24.559Z,10.62
2019-05-03T05:40:24.603Z,10.38
2019-05-03T05:41:24.566Z,10.49
2019-05-03T05:42:25.058Z,10.43
2019-05-03T05:43:25.531Z,10.59
2019-05-03T05:44:24.748Z,10.86
2019-05-03T05:45:24.650Z,10.92
2019-05-03T05:46:24.941Z,11.04
2019-05-03T05:47:25.395Z,10.90
2019-05-03T05:48:24.673Z,10.87
2019-05-03T05:49:25.802Z,11.12
2019-05-03T05:50:25.394Z,11.35
2019-05-03T05:51:26.186Z,11.49
2019-05-03T05:52:24.588Z,11.35
2019-05-03T05:53:31.136Z,11.40
2019-05-03T05:54:24.584Z,11.58
2019-05-03T05:55:31.629Z,11.48
2019-05-03T05:56:25.049Z,11.73
2019-05-03T05:57:25.633Z,12.10
2019-05-03T05:58:25.701Z,11.89
2019-05-03T05:59:24.810Z,11.37
2019-05-03T06:00:25.730Z,11.01
2019-05-03T06:01:25.051Z,11.45
2019-05-03T06:02:25.372Z,11.76
2019-05-03T06:03:25.270Z,11.71
2019-05-03T06:04:24.588Z,11.83
2019-05-03T06:05:25.277Z,12.18
2019-05-03T06:06:24.401Z,12.03
2019-05-03T06:07:24.854Z,12.28
2019-05-03T06:08:25.121Z,12.40
2019-05-03T06:09:25.650Z,12.48
2019-05-03T06:10:24.825Z,12.72
2019-05-03T06:11:25.715Z,12.61
2019-05-03T06:12:25.081Z,12.84
2019-05-03T06:13:23.966Z,13.16
2019-05-03T06:14:24.542Z,13.05
2019-05-03T06:15:25.030Z,12.78
2019-05-03T06:16:24.567Z,13.02
2019-05-03T06:17:24.523Z,13.03
2019-05-03T06:18:25.035Z,12.87
2019-05-03T06:19:25.298Z,12.40
2019-05-03T06:20:24.589Z,12.39
2019-05-03T06:21:25.099Z,12.18
2019-05-03T06:22:25.551Z,11.99
2019-05-03T06:23:24.813Z,11.80
2019-05-03T06:24:24.908Z,11.62
2019-05-03T06:25:26.544Z,11.55
2019-05-03T06:26:25.300Z,11.35
2019-05-03T06:27:24.416Z,11.18
2019-05-03T06:28:25.207Z,11.08
2019-05-03T06:29:24.791Z,11.27
2019-05-03T06:30:24.863Z,11.33
2019-05-03T06:31:25.250Z,11.55
2019-05-03T06:32:25.385Z,11.65
2019-05-03T06:33:24.456Z,12.12
2019-05-03T06:34:25.174Z,12.35
2019-05-03T06:35:24.418Z,12.36
2019-05-03T06:36:24.343Z,12.50
2019-05-03T06:37:25.141Z,12.39
2019-05-03T06:38:24.415Z,12.48
2019-05-03T06:39:24.954Z,12.69
2019-05-03T06:40:25.903Z,12.75
2019-05-03T06:41:25.066Z,12.75
2019-05-03T06:42:25.314Z,12.86
2019-05-03T06:43:24.438Z,13.05
2019-05-03T06:44:24.728Z,13.28
2019-05-03T06:45:25.165Z,13.54
2019-05-03T06:46:30.287Z,13.67
2019-05-03T06:47:25.299Z,13.73
2019-05-03T06:48:29.707Z,13.85
2019-05-03T06:49:25.509Z,13.76
2019-05-03T06:50:27.566Z,13.40
2019-05-03T06:51:24.899Z,13.57
2019-05-03T06:52:25.485Z,13.68
2019-05-03T06:53:25.408Z,13.79
2019-05-03T06:54:28.285Z,14.00
2019-05-03T06:55:24.830Z,14.20
2019-05-03T06:56:25.124Z,14.44
2019-05-03T06:57:25.335Z,14.01
2019-05-03T06:58:31.309Z,13.42
2019-05-03T06:59:24.973Z,13.19
2019-05-03T07:00:24.808Z,13.20
2019-05-03T07:01:25.163Z,12.75
2019-05-03T07:02:25.155Z,12.35
2019-05-03T07:03:25.106Z,12.44
2019-05-03T07:04:24.524Z,12.76
2019-05-03T07:05:25.134Z,13.11
2019-05-03T07:06:34.436Z,12.87
2019-05-03T07:07:27.873Z,13.19
2019-05-03T07:08:25.214Z,13.52
2019-05-03T07:09:24.992Z,13.87
2019-05-03T07:10:24.905Z,14.15
2019-05-03T07:11:24.721Z,14.45
2019-05-03T07:12:25.014Z,14.36
2019-05-03T07:13:25.354Z,14.38
2019-05-03T07:14:24.667Z,14.37
2019-05-03T07:15:25.204Z,14.58
2019-05-03T07:16:25.144Z,14.97
2019-05-03T07:17:24.888Z,15.43
2019-05-03T07:18:24.709Z,15.47
2019-05-03T07:19:24.931Z,15.22
2019-05-03T07:20:25.610Z,15.18
2019-05-03T07:21:24.736Z,15.45
2019-05-03T07:22:30.168Z,15.47
2019-05-03T07:23:24.477Z,15.51
2019-05-03T07:24:24.869Z,15.22
2019-05-03T07:25:25.323Z,14.37
2019-05-03T07:26:25.227Z,14.38
2019-05-03T07:27:24.787Z,14.03
2019-05-03T07:28:24.844Z,13.57
2019-05-03T07:29:23.040Z,13.31
2019-05-03T07:30:24.762Z,13.12
2019-05-03T07:31:23.020Z,13.42
2019-05-03T07:32:24.669Z,13.43
2019-05-03T07:33:22.996Z,13.46
2019-05-03T07:34:24.789Z,13.28
2019-05-03T07:35:24.990Z,13.54
2019-05-03T07:36:27.361Z,13.75
2019-05-03T07:37:24.606Z,13.80
2019-05-03T07:38:24.836Z,13.95
2019-05-03T07:39:24.544Z,14.00
2019-05-03T07:40:25.072Z,13.85
2019-05-03T07:41:25.096Z,13.37
2019-05-03T07:42:22.941Z,12.90
2019-05-03T07:43:24.538Z,12.55
2019-05-03T07:44:22.947Z,12.32
2019-05-03T07:45:22.878Z,12.33
2019-05-03T07:46:24.709Z,12.36
2019-05-03T07:47:24.586Z,12.29
2019-05-03T07:48:22.872Z,12.17
2019-05-03T07:49:24.821Z,12.30
2019-05-03T07:50:22.916Z,12.72
2019-05-03T07:51:24.689Z,12.80
2019-05-03T07:52:22.899Z,13.02
2019-05-03T07:53:25.014Z,12.84
2019-05-03T07:54:24.691Z,12.98
2019-05-03T07:55:24.877Z,13.36
2019-05-03T07:56:22.824Z,13.60
2019-05-03T07:57:22.733Z,13.36
2019-05-03T07:58:22.742Z,13.06
2019-05-03T07:59:22.709Z,13.20
2019-05-03T08:00:22.781Z,13.62
2019-05-03T08:01:22.688Z,14.05
2019-05-03T08:02:25.164Z,14.15
2019-05-03T08:03:24.321Z,14.70
2019-05-03T08:04:25.548Z,14.94
2019-05-03T08:05:24.570Z,15.19
2019-05-03T08:06:37.639Z,15.25
2019-05-03T08:07:23.485Z,15.25
2019-05-03T08:08:25.060Z,15.55
2019-05-03T08:09:24.474Z,15.72
2019-05-03T08:10:22.644Z,15.29
2019-05-03T08:11:24.731Z,15.75
2019-05-03T08:12:24.559Z,16.00
2019-05-03T08:13:22.555Z,16.31
2019-05-03T08:14:22.641Z,15.94
2019-05-03T08:15:24.069Z,15.19
2019-05-03T08:16:24.859Z,14.67
2019-05-03T08:17:22.512Z,14.31
2019-05-03T08:18:22.566Z,14.44
2019-05-03T08:19:24.468Z,13.70
2019-05-03T08:20:24.705Z,14.25
2019-05-03T08:21:22.469Z,14.33
2019-05-03T08:22:22.492Z,14.52
2019-05-03T08:23:27.484Z,15.07
2019-05-03T08:24:25.344Z,15.18
2019-05-03T08:25:22.439Z,15.27
2019-05-03T08:26:22.520Z,15.27
2019-05-03T08:27:22.404Z,15.26
2019-05-03T08:28:24.417Z,15.41
2019-05-03T08:29:22.387Z,14.89
2019-05-03T08:30:22.473Z,14.59
2019-05-03T08:31:24.056Z,14.34
2019-05-03T08:32:24.455Z,14.48
2019-05-03T08:33:22.336Z,15.08
2019-05-03T08:34:22.470Z,15.44
2019-05-03T08:35:24.265Z,16.17
2019-05-03T08:36:24.625Z,17.14
2019-05-03T08:37:24.374Z,16.13
2019-05-03T08:38:22.294Z,16.16
2019-05-03T08:39:22.272Z,15.81
2019-05-03T08:40:24.427Z,15.94
2019-05-03T08:41:22.247Z,16.09
2019-05-03T08:42:22.322Z,15.19
2019-05-03T08:43:22.227Z,14.63
2019-05-03T08:44:22.232Z,14.41
2019-05-03T08:45:22.232Z,14.08
2019-05-03T08:46:22.247Z,13.47
2019-05-03T08:47:22.180Z,13.37
2019-05-03T08:48:22.260Z,13.33
2019-05-03T08:49:22.160Z,13.21
2019-05-03T08:50:29.134Z,13.23
2019-05-03T08:51:22.152Z,13.97
2019-05-03T08:52:24.815Z,14.85
2019-05-03T08:53:22.119Z,15.10
2019-05-03T08:54:25.400Z,14.55
2019-05-03T08:55:22.094Z,14.04
2019-05-03T08:56:22.154Z,14.25
2019-05-03T08:57:22.073Z,15.00
2019-05-03T08:58:22.124Z,15.15
2019-05-03T08:59:31.576Z,15.60
2019-05-03T09:00:24.925Z,15.73
2019-05-03T09:01:22.079Z,16.08
2019-05-03T09:02:22.028Z,16.25
2019-05-03T09:03:22.057Z,16.44
2019-05-03T09:04:34.233Z,15.73
2019-05-03T09:05:24.869Z,15.30
2019-05-03T09:06:22.027Z,15.14
2019-05-03T09:07:21.961Z,14.86
2019-05-03T09:08:21.992Z,14.51
2019-05-03T09:09:21.943Z,15.10
2019-05-03T09:10:22.002Z,15.39
2019-05-03T09:11:33.365Z,15.57
2019-05-03T09:12:25.044Z,16.17
2019-05-03T09:13:21.923Z,15.96
2019-05-03T09:14:21.884Z,16.09
2019-05-03T09:15:21.937Z,16.51
2019-05-03T09:16:21.948Z,17.10
2019-05-03T09:17:21.948Z,17.42
2019-05-03T09:18:21.846Z,17.41
2019-05-03T09:19:21.922Z,17.02
2019-05-03T09:20:21.817Z,16.66
2019-05-03T09:21:21.905Z,16.32
2019-05-03T09:22:21.795Z,15.72
2019-05-03T09:23:25.466Z,14.70
2019-05-03T09:24:21.785Z,14.20
2019-05-03T09:25:21.799Z,13.67
2019-05-03T09:26:21.767Z,13.08
2019-05-03T09:27:21.813Z,12.99
2019-05-03T09:28:21.731Z,12.73
2019-05-03T09:29:21.827Z,12.54
2019-05-03T09:30:21.707Z,12.72
2019-05-03T09:31:21.770Z,12.70
2019-05-03T09:32:21.690Z,12.53
2019-05-03T09:33:24.727Z,12.61
2019-05-03T09:34:21.670Z,12.78
2019-05-03T09:35:33.265Z,12.94
2019-05-03T09:36:22.655Z,13.23
2019-05-03T09:37:28.640Z,13.08
2019-05-03T09:38:21.618Z,12.99
2019-05-03T09:39:24.484Z,13.06
2019-05-03T09:40:21.597Z,13.27
2019-05-03T09:41:21.632Z,13.43
2019-05-03T09:42:21.575Z,13.58
2019-05-03T09:43:21.616Z,13.67
2019-05-03T09:44:21.554Z,13.79
2019-05-03T09:45:21.628Z,14.25
2019-05-03T09:46:23.496Z,14.92
2019-05-03T09:47:21.547Z,15.30
2019-05-03T09:48:21.545Z,15.17
2019-05-03T09:49:21.555Z,15.51
2019-05-03T09:50:21.486Z,15.45
2019-05-03T09:51:21.598Z,14.58
2019-05-03T09:52:21.467Z,14.13
2019-05-03T09:53:21.478Z,14.25
2019-05-03T09:54:21.443Z,14.36
2019-05-03T09:55:21.495Z,13.93
2019-05-03T09:56:21.440Z,13.52
2019-05-03T09:57:21.507Z,13.49
2019-05-03T09:58:21.400Z,13.47
2019-05-03T09:59:21.419Z,13.60
2019-05-03T10:00:21.377Z,13.50
2019-05-03T10:01:21.463Z,13.79
2019-05-03T10:02:21.354Z,13.70
2019-05-03T10:03:21.445Z,14.62
2019-05-03T10:04:21.337Z,15.65
2019-05-03T10:05:21.359Z,16.05
2019-05-03T10:06:21.356Z,16.91
2019-05-03T10:07:21.374Z,17.75
2019-05-03T10:08:21.291Z,18.51
2019-05-03T10:09:21.388Z,18.89
2019-05-03T10:10:21.266Z,19.44
2019-05-03T10:11:21.327Z,19.56
2019-05-03T10:12:21.253Z,19.34
2019-05-03T10:13:23.615Z,18.61
2019-05-03T10:14:21.225Z,17.39
2019-05-03T10:15:21.327Z,16.79
2019-05-03T10:16:21.203Z,16.18
2019-05-03T10:17:21.271Z,15.81
2019-05-03T10:18:21.179Z,15.54
2019-05-03T10:19:33.751Z,15.27
2019-05-03T10:20:22.156Z,15.17
2019-05-03T10:21:21.190Z,14.94
2019-05-03T10:22:21.153Z,14.49
2019-05-03T10:23:27.726Z,14.63
2019-05-03T10:24:21.116Z,14.53
2019-05-03T10:25:22.211Z,14.82
2019-05-03T10:26:21.091Z,15.54
2019-05-03T10:27:21.130Z,16.13
2019-05-03T10:28:21.069Z,16.47
2019-05-03T10:29:21.113Z,16.80
2019-05-03T10:30:21.046Z,16.32
2019-05-03T10:31:21.125Z,15.65
2019-05-03T10:32:21.042Z,15.07
2019-05-03T10:33:21.036Z,14.66
2019-05-03T10:34:21.005Z,14.01
2019-05-03T10:35:21.051Z,13.79
2019-05-03T10:36:20.983Z,13.61
2019-05-03T10:37:21.097Z,13.39
2019-05-03T10:38:20.964Z,13.28
2019-05-03T10:39:20.976Z,13.09
2019-05-03T10:40:20.936Z,13.08
2019-05-03T10:41:20.989Z,13.03
2019-05-03T10:42:20.929Z,12.90
2019-05-03T10:43:21.003Z,12.53
2019-05-03T10:44:20.893Z,12.51
2019-05-03T10:45:20.918Z,12.47
2019-05-03T10:46:20.869Z,12.62
2019-05-03T10:47:20.962Z,12.83
2019-05-03T10:48:20.848Z,13.12
2019-05-03T10:49:20.941Z,13.21
2019-05-03T10:50:20.829Z,13.49
2019-05-03T10:51:20.854Z,13.49
2019-05-03T10:52:20.818Z,13.47
2019-05-03T10:53:20.871Z,13.62
2019-05-03T10:54:20.784Z,13.42
2019-05-03T10:55:20.882Z,13.20
2019-05-03T10:56:23.665Z,13.28
2019-05-03T10:57:21.847Z,13.31
2019-05-03T10:58:20.744Z,13.16
2019-05-03T10:59:20.810Z,13.01
2019-05-03T11:00:42.498Z,12.70
2019-05-03T11:01:21.704Z,12.68
2019-05-03T11:02:20.755Z,12.70
2019-05-03T11:03:20.685Z,12.66
2019-05-03T11:04:20.737Z,12.55
2019-05-03T11:05:20.666Z,12.50
2019-05-03T11:06:20.750Z,12.39
2019-05-03T11:07:20.657Z,12.43
2019-05-03T11:08:20.662Z,12.40
2019-05-03T11:09:20.620Z,12.48
2019-05-03T11:10:20.676Z,12.45
2019-05-03T11:11:20.599Z,12.50
2019-05-03T11:12:25.443Z,12.75
2019-05-03T11:13:20.574Z,12.99
2019-05-03T11:14:20.602Z,13.23
2019-05-03T11:15:20.553Z,13.75
2019-05-03T11:16:20.616Z,14.34
2019-05-03T11:17:20.547Z,15.10
2019-05-03T11:18:20.635Z,15.91
2019-05-03T11:19:20.510Z,17.02
2019-05-03T11:20:28.407Z,17.88
2019-05-03T11:21:28.189Z,18.05
2019-05-03T11:22:22.105Z,18.37
2019-05-03T11:23:20.561Z,18.42
2019-05-03T11:24:23.377Z,19.12
2019-05-03T11:25:20.472Z,18.24
2019-05-03T11:26:20.434Z,17.75
2019-05-03T11:27:20.518Z,16.94
2019-05-03T11:28:20.414Z,16.57
2019-05-03T11:29:20.508Z,16.86
2019-05-03T11:30:20.392Z,16.65
2019-05-03T11:31:20.411Z,16.50
2019-05-03T11:32:20.385Z,16.94
2019-05-03T11:33:20.439Z,16.06
2019-05-03T11:34:22.515Z,16.58
2019-05-03T11:35:20.438Z,16.79
2019-05-03T11:36:20.326Z,17.12
2019-05-03T11:37:20.381Z,18.02
2019-05-03T11:38:20.301Z,18.83
2019-05-03T11:39:20.363Z,19.49
2019-05-03T11:40:20.281Z,19.57
2019-05-03T11:41:30.355Z,18.79
2019-05-03T11:42:21.289Z,18.43
2019-05-03T11:43:20.288Z,18.15
2019-05-03T11:44:20.240Z,18.91
2019-05-03T11:45:20.303Z,19.74
2019-05-03T11:46:20.216Z,18.79
2019-05-03T11:47:20.318Z,18.05
2019-05-03T11:48:20.208Z,17.27
2019-05-03T11:49:28.214Z,16.39
2019-05-03T11:50:20.172Z,15.73
2019-05-03T11:52:28.983Z,15.36
2019-05-03T11:53:28.915Z,15.22
2019-05-03T11:54:28.965Z,14.87
2019-05-03T11:55:28.883Z,14.68
2019-05-03T11:56:28.979Z,14.63
2019-05-03T11:57:28.862Z,14.67
2019-05-03T11:58:28.923Z,14.51
2019-05-03T11:59:28.840Z,14.30
2019-05-03T12:00:28.903Z,13.93
2019-05-03T12:01:28.820Z,13.87
2019-05-03T12:02:29.004Z,13.79
2019-05-03T12:03:28.807Z,13.76
2019-05-03T12:04:28.830Z,13.79
2019-05-03T12:05:28.770Z,14.08
2019-05-03T12:06:28.843Z,13.97
2019-05-03T12:07:38.534Z,14.43
2019-05-03T12:08:29.751Z,14.93
2019-05-03T12:09:28.761Z,15.51
2019-05-03T12:10:46.764Z,16.92
2019-05-03T12:11:29.707Z,18.33
2019-05-03T12:12:29.540Z,18.83
2019-05-03T12:13:28.703Z,19.48
2019-05-03T12:14:28.693Z,19.52
2019-05-03T12:15:28.660Z,19.11
2019-05-03T12:17:08.763Z,18.19
2019-05-03T12:17:31.923Z,18.39
2019-05-03T12:18:29.024Z,17.71
2019-05-03T12:19:31.646Z,17.69
2019-05-03T12:20:30.095Z,17.76
2019-05-03T12:21:29.759Z,17.97
2019-05-03T12:22:29.156Z,18.31
2019-05-03T12:23:31.484Z,18.30
2019-05-03T12:24:29.123Z,17.73
2019-05-03T12:25:28.952Z,17.42
2019-05-03T12:26:40.852Z,16.95
2019-05-03T12:27:29.529Z,16.10
2019-05-03T12:28:28.617Z,16.03
2019-05-03T12:29:28.512Z,15.99
2019-05-03T12:30:28.597Z,15.80
2019-05-03T12:31:37.099Z,15.18
2019-05-03T12:32:29.479Z,14.85
2019-05-03T12:33:28.551Z,14.74
2019-05-03T12:34:28.453Z,14.71
2019-05-03T12:35:28.531Z,15.10
2019-05-03T12:36:28.449Z,15.51
2019-05-03T12:37:28.442Z,16.51
2019-05-03T12:38:28.425Z,17.80
2019-05-03T12:39:30.511Z,18.92
2019-05-03T12:40:28.390Z,18.88
2019-05-03T12:41:28.470Z,18.09
2019-05-03T12:42:28.365Z,16.84
2019-05-03T12:43:28.414Z,16.31
2019-05-03T12:44:28.349Z,16.05
2019-05-03T12:45:28.394Z,15.75
2019-05-03T12:46:28.323Z,15.25
2019-05-03T12:47:28.412Z,14.85
2019-05-03T12:48:28.313Z,14.48
2019-05-03T12:49:28.319Z,14.31
2019-05-03T12:50:28.276Z,14.26
2019-05-03T12:51:28.447Z,13.75
2019-05-03T12:52:28.915Z,13.21
2019-05-03T12:53:28.277Z,12.81
2019-05-03T12:54:28.233Z,12.93
2019-05-03T12:55:28.258Z,12.80
2019-05-03T12:56:32.643Z,12.72
2019-05-03T12:57:29.295Z,12.51
2019-05-03T12:58:28.204Z,12.50
2019-05-03T12:59:28.285Z,12.48
2019-05-03T13:00:28.167Z,12.55
2019-05-03T13:01:40.655Z,12.54
2019-05-03T13:02:29.150Z,12.54
2019-05-03T13:03:28.241Z,12.58
2019-05-03T13:04:28.125Z,12.68
2019-05-03T13:05:28.223Z,12.76